sensor_id;sensor_type;location;lat;lon;timestamp;P1;durP1;ratioP1;P2;durP2;ratioP2
22191;SDS011;11261;52.456;10.850;2023-06-26T00:01:54;5.47;;;3.40;;
22191;SDS011;11261;52.456;10.850;2023-06-26T00:04:24;4.55;;;3.78;;
22191;SDS011;11261;52.456;10.850;2023-06-26T00:06:52;5.00;;;3.40;;
22191;SDS011;11261;52.456;10.850;2023-06-26T00:09:20;4.65;;;3.35;;
22191;SDS011;11261;52.456;10.850;2023-06-26T00:11:49;5.65;;;2.72;;
22191;SDS011;11261;52.456;10.850;2023-06-26T00:14:18;4.00;;;3.20;;
22191;SDS011;11261;52.456;10.850;2023-06-26T00:16:47;4.93;;;3.28;;
22191;SDS011;11261;52.456;10.850;2023-06-26T00:19:16;4.75;;;3.63;;
22191;SDS011;11261;52.456;10.850;2023-06-26T00:21:46;3.92;;;3.00;;
22191;SDS011;11261;52.456;10.850;2023-06-26T00:24:15;5.80;;;4.00;;
22191;SDS011;11261;52.456;10.850;2023-06-26T00:26:46;4.40;;;3.30;;
22191;SDS011;11261;52.456;10.850;2023-06-26T00:29:15;5.45;;;3.20;;
22191;SDS011;11261;52.456;10.850;2023-06-26T00:31:44;6.35;;;3.40;;
22191;SDS011;11261;52.456;10.850;2023-06-26T00:34:12;4.22;;;3.42;;
22191;SDS011;11261;52.456;10.850;2023-06-26T00:36:41;6.78;;;3.55;;
22191;SDS011;11261;52.456;10.850;2023-06-26T00:39:11;4.28;;;3.15;;
22191;SDS011;11261;52.456;10.850;2023-06-26T00:41:40;3.90;;;3.42;;
22191;SDS011;11261;52.456;10.850;2023-06-26T00:44:08;4.82;;;3.40;;
22191;SDS011;11261;52.456;10.850;2023-06-26T00:46:36;4.32;;;3.50;;
22191;SDS011;11261;52.456;10.850;2023-06-26T00:49:04;5.72;;;3.30;;
22191;SDS011;11261;52.456;10.850;2023-06-26T00:51:33;4.10;;;3.30;;
22191;SDS011;11261;52.456;10.850;2023-06-26T00:54:02;4.10;;;3.45;;
22191;SDS011;11261;52.456;10.850;2023-06-26T00:56:32;3.50;;;3.13;;
22191;SDS011;11261;52.456;10.850;2023-06-26T00:59:01;5.53;;;3.30;;
22191;SDS011;11261;52.456;10.850;2023-06-26T01:01:30;3.92;;;3.03;;
22191;SDS011;11261;52.456;10.850;2023-06-26T01:03:58;4.70;;;3.63;;
22191;SDS011;11261;52.456;10.850;2023-06-26T01:06:27;4.05;;;3.30;;
22191;SDS011;11261;52.456;10.850;2023-06-26T01:08:58;5.63;;;3.58;;
22191;SDS011;11261;52.456;10.850;2023-06-26T01:11:27;4.80;;;2.92;;
22191;SDS011;11261;52.456;10.850;2023-06-26T01:13:58;4.45;;;3.80;;
22191;SDS011;11261;52.456;10.850;2023-06-26T01:16:29;4.43;;;3.50;;
22191;SDS011;11261;52.456;10.850;2023-06-26T01:18:57;4.50;;;3.40;;
22191;SDS011;11261;52.456;10.850;2023-06-26T01:21:26;4.07;;;3.10;;
22191;SDS011;11261;52.456;10.850;2023-06-26T01:24:01;4.13;;;3.60;;
22191;SDS011;11261;52.456;10.850;2023-06-26T01:26:37;5.63;;;3.45;;
22191;SDS011;11261;52.456;10.850;2023-06-26T01:29:07;4.72;;;3.50;;
22191;SDS011;11261;52.456;10.850;2023-06-26T01:31:37;4.65;;;3.33;;
22191;SDS011;11261;52.456;10.850;2023-06-26T01:34:07;5.00;;;3.35;;
22191;SDS011;11261;52.456;10.850;2023-06-26T01:36:36;4.45;;;3.35;;
22191;SDS011;11261;52.456;10.850;2023-06-26T01:39:05;3.88;;;3.17;;
22191;SDS011;11261;52.456;10.850;2023-06-26T01:41:34;4.47;;;3.65;;
22191;SDS011;11261;52.456;10.850;2023-06-26T01:44:10;4.20;;;3.70;;
22191;SDS011;11261;52.456;10.850;2023-06-26T01:46:46;4.65;;;3.60;;
22191;SDS011;11261;52.456;10.850;2023-06-26T01:49:24;3.90;;;3.50;;
22191;SDS011;11261;52.456;10.850;2023-06-26T01:52:07;4.95;;;3.60;;
22191;SDS011;11261;52.456;10.850;2023-06-26T01:57:31;6.32;;;3.75;;
22191;SDS011;11261;52.456;10.850;2023-06-26T02:00:02;4.13;;;3.55;;
22191;SDS011;11261;52.456;10.850;2023-06-26T02:02:32;4.75;;;3.55;;
22191;SDS011;11261;52.456;10.850;2023-06-26T02:05:02;5.20;;;3.85;;
22191;SDS011;11261;52.456;10.850;2023-06-26T02:07:31;6.80;;;3.70;;
22191;SDS011;11261;52.456;10.850;2023-06-26T02:09:59;7.35;;;4.00;;
22191;SDS011;11261;52.456;10.850;2023-06-26T02:12:27;5.32;;;3.72;;
22191;SDS011;11261;52.456;10.850;2023-06-26T02:14:57;4.88;;;3.72;;
22191;SDS011;11261;52.456;10.850;2023-06-26T02:17:25;4.47;;;3.47;;
22191;SDS011;11261;52.456;10.850;2023-06-26T02:19:53;5.05;;;4.00;;
22191;SDS011;11261;52.456;10.850;2023-06-26T02:22:22;6.60;;;3.70;;
22191;SDS011;11261;52.456;10.850;2023-06-26T02:24:50;5.60;;;3.30;;
22191;SDS011;11261;52.456;10.850;2023-06-26T02:27:18;7.72;;;3.67;;
22191;SDS011;11261;52.456;10.850;2023-06-26T02:29:46;4.85;;;3.72;;
22191;SDS011;11261;52.456;10.850;2023-06-26T02:32:16;4.07;;;3.40;;
22191;SDS011;11261;52.456;10.850;2023-06-26T02:34:44;4.30;;;3.50;;
22191;SDS011;11261;52.456;10.850;2023-06-26T02:37:12;5.45;;;3.97;;
22191;SDS011;11261;52.456;10.850;2023-06-26T02:39:42;6.50;;;4.30;;
22191;SDS011;11261;52.456;10.850;2023-06-26T02:42:11;4.47;;;3.60;;
22191;SDS011;11261;52.456;10.850;2023-06-26T02:44:39;7.50;;;4.13;;
22191;SDS011;11261;52.456;10.850;2023-06-26T02:47:08;7.63;;;3.80;;
22191;SDS011;11261;52.456;10.850;2023-06-26T02:49:37;5.40;;;3.42;;
22191;SDS011;11261;52.456;10.850;2023-06-26T02:52:06;4.68;;;3.72;;
22191;SDS011;11261;52.456;10.850;2023-06-26T02:54:34;6.50;;;4.22;;
22191;SDS011;11261;52.456;10.850;2023-06-26T02:57:02;4.43;;;3.72;;
22191;SDS011;11261;52.456;10.850;2023-06-26T02:59:31;4.10;;;3.45;;
22191;SDS011;11261;52.456;10.850;2023-06-26T03:02:00;5.47;;;4.25;;
22191;SDS011;11261;52.456;10.850;2023-06-26T03:04:28;7.15;;;4.30;;
22191;SDS011;11261;52.456;10.850;2023-06-26T03:06:58;4.82;;;3.95;;
22191;SDS011;11261;52.456;10.850;2023-06-26T03:09:26;4.38;;;3.60;;
22191;SDS011;11261;52.456;10.850;2023-06-26T03:11:55;7.65;;;4.03;;
22191;SDS011;11261;52.456;10.850;2023-06-26T03:14:23;5.30;;;3.40;;
22191;SDS011;11261;52.456;10.850;2023-06-26T03:16:51;5.57;;;4.25;;
22191;SDS011;11261;52.456;10.850;2023-06-26T03:19:23;6.10;;;4.15;;
22191;SDS011;11261;52.456;10.850;2023-06-26T03:21:51;6.70;;;4.65;;
22191;SDS011;11261;52.456;10.850;2023-06-26T03:24:22;7.35;;;4.70;;
22191;SDS011;11261;52.456;10.850;2023-06-26T03:26:50;7.32;;;4.43;;
22191;SDS011;11261;52.456;10.850;2023-06-26T03:29:19;5.40;;;4.13;;
22191;SDS011;11261;52.456;10.850;2023-06-26T03:31:47;4.88;;;4.05;;
22191;SDS011;11261;52.456;10.850;2023-06-26T03:34:16;5.50;;;4.13;;
22191;SDS011;11261;52.456;10.850;2023-06-26T03:36:44;6.82;;;4.28;;
22191;SDS011;11261;52.456;10.850;2023-06-26T03:39:12;5.85;;;4.30;;
22191;SDS011;11261;52.456;10.850;2023-06-26T03:41:42;5.57;;;4.25;;
22191;SDS011;11261;52.456;10.850;2023-06-26T03:44:10;6.20;;;4.55;;
22191;SDS011;11261;52.456;10.850;2023-06-26T03:46:38;5.13;;;4.00;;
22191;SDS011;11261;52.456;10.850;2023-06-26T03:49:07;5.05;;;4.43;;
22191;SDS011;11261;52.456;10.850;2023-06-26T03:51:37;5.30;;;4.22;;
22191;SDS011;11261;52.456;10.850;2023-06-26T03:54:05;6.80;;;4.07;;
22191;SDS011;11261;52.456;10.850;2023-06-26T03:56:34;4.80;;;3.60;;
22191;SDS011;11261;52.456;10.850;2023-06-26T03:59:03;4.80;;;3.55;;
22191;SDS011;11261;52.456;10.850;2023-06-26T04:01:31;6.47;;;3.83;;
22191;SDS011;11261;52.456;10.850;2023-06-26T04:04:00;6.70;;;4.05;;
22191;SDS011;11261;52.456;10.850;2023-06-26T04:06:28;5.22;;;4.10;;
22191;SDS011;11261;52.456;10.850;2023-06-26T04:08:58;6.00;;;3.85;;
22191;SDS011;11261;52.456;10.850;2023-06-26T04:11:26;6.38;;;4.30;;
22191;SDS011;11261;52.456;10.850;2023-06-26T04:13:54;6.43;;;4.10;;
22191;SDS011;11261;52.456;10.850;2023-06-26T04:16:25;5.25;;;3.97;;
22191;SDS011;11261;52.456;10.850;2023-06-26T04:18:53;6.05;;;3.45;;
22191;SDS011;11261;52.456;10.850;2023-06-26T04:21:23;6.88;;;3.88;;
22191;SDS011;11261;52.456;10.850;2023-06-26T04:23:52;5.43;;;4.05;;
22191;SDS011;11261;52.456;10.850;2023-06-26T04:26:20;4.63;;;3.63;;
22191;SDS011;11261;52.456;10.850;2023-06-26T04:28:48;6.30;;;3.80;;
22191;SDS011;11261;52.456;10.850;2023-06-26T04:31:17;6.53;;;3.83;;
22191;SDS011;11261;52.456;10.850;2023-06-26T04:33:47;6.68;;;3.67;;
22191;SDS011;11261;52.456;10.850;2023-06-26T04:36:17;7.57;;;3.45;;
22191;SDS011;11261;52.456;10.850;2023-06-26T04:38:45;5.22;;;3.92;;
22191;SDS011;11261;52.456;10.850;2023-06-26T04:41:14;7.10;;;3.85;;
22191;SDS011;11261;52.456;10.850;2023-06-26T04:43:42;5.28;;;3.60;;
22191;SDS011;11261;52.456;10.850;2023-06-26T04:46:11;4.90;;;3.40;;
22191;SDS011;11261;52.456;10.850;2023-06-26T04:48:39;5.55;;;3.90;;
22191;SDS011;11261;52.456;10.850;2023-06-26T04:51:08;7.55;;;4.07;;
22191;SDS011;11261;52.456;10.850;2023-06-26T04:53:37;6.80;;;3.90;;
22191;SDS011;11261;52.456;10.850;2023-06-26T04:56:05;9.40;;;3.97;;
22191;SDS011;11261;52.456;10.850;2023-06-26T04:58:33;6.28;;;3.65;;
22191;SDS011;11261;52.456;10.850;2023-06-26T05:01:02;6.45;;;3.80;;
22191;SDS011;11261;52.456;10.850;2023-06-26T05:03:33;4.95;;;3.83;;
22191;SDS011;11261;52.456;10.850;2023-06-26T05:06:02;6.32;;;3.72;;
22191;SDS011;11261;52.456;10.850;2023-06-26T05:08:36;4.00;;;3.60;;
22191;SDS011;11261;52.456;10.850;2023-06-26T05:11:05;4.38;;;3.38;;
22191;SDS011;11261;52.456;10.850;2023-06-26T05:13:33;5.38;;;3.70;;
22191;SDS011;11261;52.456;10.850;2023-06-26T05:16:01;3.65;;;3.28;;
22191;SDS011;11261;52.456;10.850;2023-06-26T05:18:30;3.70;;;3.15;;
22191;SDS011;11261;52.456;10.850;2023-06-26T05:20:58;6.82;;;3.85;;
22191;SDS011;11261;52.456;10.850;2023-06-26T05:23:27;5.72;;;3.35;;
22191;SDS011;11261;52.456;10.850;2023-06-26T05:26:00;6.47;;;3.88;;
22191;SDS011;11261;52.456;10.850;2023-06-26T05:28:29;4.97;;;3.08;;
22191;SDS011;11261;52.456;10.850;2023-06-26T05:30:59;5.68;;;3.47;;
22191;SDS011;11261;52.456;10.850;2023-06-26T05:33:27;5.00;;;3.17;;
22191;SDS011;11261;52.456;10.850;2023-06-26T05:35:56;4.68;;;3.20;;
22191;SDS011;11261;52.456;10.850;2023-06-26T05:38:26;4.55;;;3.47;;
22191;SDS011;11261;52.456;10.850;2023-06-26T05:40:55;4.38;;;3.35;;
22191;SDS011;11261;52.456;10.850;2023-06-26T05:43:25;4.93;;;3.65;;
22191;SDS011;11261;52.456;10.850;2023-06-26T05:45:55;3.70;;;3.00;;
22191;SDS011;11261;52.456;10.850;2023-06-26T05:48:24;4.53;;;3.20;;
22191;SDS011;11261;52.456;10.850;2023-06-26T05:50:52;4.20;;;3.35;;
22191;SDS011;11261;52.456;10.850;2023-06-26T05:53:22;4.60;;;3.42;;
22191;SDS011;11261;52.456;10.850;2023-06-26T05:55:51;6.15;;;3.30;;
22191;SDS011;11261;52.456;10.850;2023-06-26T05:58:19;3.55;;;3.13;;
22191;SDS011;11261;52.456;10.850;2023-06-26T06:00:50;3.83;;;3.03;;
22191;SDS011;11261;52.456;10.850;2023-06-26T06:03:18;7.90;;;3.70;;
22191;SDS011;11261;52.456;10.850;2023-06-26T06:05:47;3.95;;;3.00;;
22191;SDS011;11261;52.456;10.850;2023-06-26T06:08:15;5.50;;;3.10;;
22191;SDS011;11261;52.456;10.850;2023-06-26T06:10:44;3.55;;;2.60;;
22191;SDS011;11261;52.456;10.850;2023-06-26T06:13:12;4.82;;;3.20;;
22191;SDS011;11261;52.456;10.850;2023-06-26T06:15:40;4.30;;;3.63;;
22191;SDS011;11261;52.456;10.850;2023-06-26T06:18:10;5.07;;;3.03;;
22191;SDS011;11261;52.456;10.850;2023-06-26T06:20:39;3.20;;;2.75;;
22191;SDS011;11261;52.456;10.850;2023-06-26T06:23:08;3.65;;;3.13;;
22191;SDS011;11261;52.456;10.850;2023-06-26T06:25:36;3.17;;;2.88;;
22191;SDS011;11261;52.456;10.850;2023-06-26T06:28:05;3.85;;;3.00;;
22191;SDS011;11261;52.456;10.850;2023-06-26T06:30:33;3.85;;;2.78;;
22191;SDS011;11261;52.456;10.850;2023-06-26T06:33:11;3.03;;;2.72;;
22191;SDS011;11261;52.456;10.850;2023-06-26T06:35:40;6.40;;;3.20;;
22191;SDS011;11261;52.456;10.850;2023-06-26T06:38:08;6.28;;;3.00;;
22191;SDS011;11261;52.456;10.850;2023-06-26T06:40:37;4.13;;;3.25;;
22191;SDS011;11261;52.456;10.850;2023-06-26T06:43:06;4.28;;;3.00;;
22191;SDS011;11261;52.456;10.850;2023-06-26T06:45:34;3.72;;;2.90;;
22191;SDS011;11261;52.456;10.850;2023-06-26T06:48:04;3.80;;;3.40;;
22191;SDS011;11261;52.456;10.850;2023-06-26T06:50:34;3.03;;;2.72;;
22191;SDS011;11261;52.456;10.850;2023-06-26T06:53:02;3.03;;;2.72;;
22191;SDS011;11261;52.456;10.850;2023-06-26T06:55:31;3.45;;;2.92;;
22191;SDS011;11261;52.456;10.850;2023-06-26T06:57:59;4.70;;;2.88;;
22191;SDS011;11261;52.456;10.850;2023-06-26T07:00:31;4.75;;;3.00;;
22191;SDS011;11261;52.456;10.850;2023-06-26T07:02:59;3.70;;;3.15;;
22191;SDS011;11261;52.456;10.850;2023-06-26T07:05:27;5.82;;;3.50;;
22191;SDS011;11261;52.456;10.850;2023-06-26T07:07:57;3.00;;;2.70;;
22191;SDS011;11261;52.456;10.850;2023-06-26T07:10:27;4.10;;;3.10;;
22191;SDS011;11261;52.456;10.850;2023-06-26T07:12:56;4.57;;;3.25;;
22191;SDS011;11261;52.456;10.850;2023-06-26T07:15:24;3.35;;;3.03;;
22191;SDS011;11261;52.456;10.850;2023-06-26T07:17:53;4.18;;;3.33;;
22191;SDS011;11261;52.456;10.850;2023-06-26T07:20:22;4.53;;;3.72;;
22191;SDS011;11261;52.456;10.850;2023-06-26T07:22:50;4.85;;;3.17;;
22191;SDS011;11261;52.456;10.850;2023-06-26T07:25:19;4.00;;;3.15;;
22191;SDS011;11261;52.456;10.850;2023-06-26T07:27:48;6.05;;;3.35;;
22191;SDS011;11261;52.456;10.850;2023-06-26T07:30:16;4.40;;;3.00;;
22191;SDS011;11261;52.456;10.850;2023-06-26T07:32:44;4.53;;;3.60;;
22191;SDS011;11261;52.456;10.850;2023-06-26T07:35:13;4.82;;;3.47;;
22191;SDS011;11261;52.456;10.850;2023-06-26T07:37:44;5.43;;;3.20;;
22191;SDS011;11261;52.456;10.850;2023-06-26T07:40:12;5.47;;;3.10;;
22191;SDS011;11261;52.456;10.850;2023-06-26T07:42:45;5.40;;;3.45;;
22191;SDS011;11261;52.456;10.850;2023-06-26T07:45:14;5.18;;;3.53;;
22191;SDS011;11261;52.456;10.850;2023-06-26T07:47:43;4.85;;;3.80;;
22191;SDS011;11261;52.456;10.850;2023-06-26T07:50:12;6.43;;;3.15;;
22191;SDS011;11261;52.456;10.850;2023-06-26T07:52:45;4.78;;;3.30;;
22191;SDS011;11261;52.456;10.850;2023-06-26T07:55:13;5.25;;;3.30;;
22191;SDS011;11261;52.456;10.850;2023-06-26T07:57:42;6.90;;;3.22;;
22191;SDS011;11261;52.456;10.850;2023-06-26T08:00:13;4.15;;;3.63;;
22191;SDS011;11261;52.456;10.850;2023-06-26T08:02:42;8.15;;;3.95;;
22191;SDS011;11261;52.456;10.850;2023-06-26T08:05:10;4.15;;;3.45;;
22191;SDS011;11261;52.456;10.850;2023-06-26T08:07:39;4.63;;;3.58;;
22191;SDS011;11261;52.456;10.850;2023-06-26T08:10:08;3.70;;;3.25;;
22191;SDS011;11261;52.456;10.850;2023-06-26T08:12:36;6.30;;;3.72;;
22191;SDS011;11261;52.456;10.850;2023-06-26T08:15:07;3.70;;;3.30;;
22191;SDS011;11261;52.456;10.850;2023-06-26T08:17:37;3.70;;;3.20;;
22191;SDS011;11261;52.456;10.850;2023-06-26T08:20:06;5.63;;;3.67;;
22191;SDS011;11261;52.456;10.850;2023-06-26T08:22:35;3.85;;;3.47;;
22191;SDS011;11261;52.456;10.850;2023-06-26T08:25:04;4.95;;;3.53;;
22191;SDS011;11261;52.456;10.850;2023-06-26T08:27:32;3.90;;;3.33;;
22191;SDS011;11261;52.456;10.850;2023-06-26T08:30:01;4.40;;;3.30;;
22191;SDS011;11261;52.456;10.850;2023-06-26T08:32:31;5.38;;;3.72;;
22191;SDS011;11261;52.456;10.850;2023-06-26T08:35:01;3.60;;;3.17;;
22191;SDS011;11261;52.456;10.850;2023-06-26T08:37:29;4.82;;;3.55;;
22191;SDS011;11261;52.456;10.850;2023-06-26T08:39:59;3.83;;;3.33;;
22191;SDS011;11261;52.456;10.850;2023-06-26T08:42:27;4.88;;;3.45;;
22191;SDS011;11261;52.456;10.850;2023-06-26T08:44:55;8.23;;;3.45;;
22191;SDS011;11261;52.456;10.850;2023-06-26T08:47:27;6.80;;;3.72;;
22191;SDS011;11261;52.456;10.850;2023-06-26T08:50:03;4.25;;;3.28;;
22191;SDS011;11261;52.456;10.850;2023-06-26T08:52:36;5.07;;;3.33;;
22191;SDS011;11261;52.456;10.850;2023-06-26T08:55:09;3.97;;;3.20;;
22191;SDS011;11261;52.456;10.850;2023-06-26T08:57:38;4.28;;;3.45;;
22191;SDS011;11261;52.456;10.850;2023-06-26T09:00:07;6.72;;;3.90;;
22191;SDS011;11261;52.456;10.850;2023-06-26T09:02:37;4.72;;;3.80;;
22191;SDS011;11261;52.456;10.850;2023-06-26T09:05:11;4.47;;;3.88;;
22191;SDS011;11261;52.456;10.850;2023-06-26T09:07:39;5.15;;;3.50;;
22191;SDS011;11261;52.456;10.850;2023-06-26T09:10:08;5.05;;;3.42;;
22191;SDS011;11261;52.456;10.850;2023-06-26T09:12:37;4.90;;;3.75;;
22191;SDS011;11261;52.456;10.850;2023-06-26T09:15:06;8.32;;;3.60;;
22191;SDS011;11261;52.456;10.850;2023-06-26T09:17:38;5.38;;;4.13;;
22191;SDS011;11261;52.456;10.850;2023-06-26T09:20:08;5.85;;;3.70;;
22191;SDS011;11261;52.456;10.850;2023-06-26T09:22:40;5.15;;;3.80;;
22191;SDS011;11261;52.456;10.850;2023-06-26T09:25:09;4.13;;;3.30;;
22191;SDS011;11261;52.456;10.850;2023-06-26T09:27:38;4.53;;;3.72;;
22191;SDS011;11261;52.456;10.850;2023-06-26T09:30:07;5.63;;;3.40;;
22191;SDS011;11261;52.456;10.850;2023-06-26T09:32:35;4.07;;;3.17;;
22191;SDS011;11261;52.456;10.850;2023-06-26T09:35:04;5.60;;;3.58;;
22191;SDS011;11261;52.456;10.850;2023-06-26T09:37:34;8.48;;;3.83;;
22191;SDS011;11261;52.456;10.850;2023-06-26T09:40:04;4.10;;;3.70;;
22191;SDS011;11261;52.456;10.850;2023-06-26T09:42:33;7.60;;;4.20;;
22191;SDS011;11261;52.456;10.850;2023-06-26T09:45:01;5.43;;;3.90;;
22191;SDS011;11261;52.456;10.850;2023-06-26T09:47:30;6.18;;;4.43;;
22191;SDS011;11261;52.456;10.850;2023-06-26T09:49:59;5.78;;;3.65;;
22191;SDS011;11261;52.456;10.850;2023-06-26T09:52:27;5.30;;;4.43;;
22191;SDS011;11261;52.456;10.850;2023-06-26T09:55:09;4.82;;;3.95;;
22191;SDS011;11261;52.456;10.850;2023-06-26T09:57:38;4.57;;;3.42;;
22191;SDS011;11261;52.456;10.850;2023-06-26T10:00:10;3.92;;;3.45;;
22191;SDS011;11261;52.456;10.850;2023-06-26T10:02:40;4.13;;;3.20;;
22191;SDS011;11261;52.456;10.850;2023-06-26T10:05:08;4.25;;;3.42;;
22191;SDS011;11261;52.456;10.850;2023-06-26T10:07:37;4.45;;;3.97;;
22191;SDS011;11261;52.456;10.850;2023-06-26T10:10:07;5.85;;;3.65;;
22191;SDS011;11261;52.456;10.850;2023-06-26T10:12:38;4.95;;;3.47;;
22191;SDS011;11261;52.456;10.850;2023-06-26T10:15:06;4.63;;;3.95;;
22191;SDS011;11261;52.456;10.850;2023-06-26T10:17:39;3.88;;;3.47;;
22191;SDS011;11261;52.456;10.850;2023-06-26T10:20:10;4.97;;;3.78;;
22191;SDS011;11261;52.456;10.850;2023-06-26T10:22:43;3.83;;;2.97;;
22191;SDS011;11261;52.456;10.850;2023-06-26T10:25:16;6.07;;;3.72;;
22191;SDS011;11261;52.456;10.850;2023-06-26T10:27:47;5.47;;;3.30;;
22191;SDS011;11261;52.456;10.850;2023-06-26T10:30:20;3.85;;;3.45;;
22191;SDS011;11261;52.456;10.850;2023-06-26T10:32:53;4.50;;;3.65;;
22191;SDS011;11261;52.456;10.850;2023-06-26T10:35:23;6.15;;;4.13;;
22191;SDS011;11261;52.456;10.850;2023-06-26T10:37:52;5.85;;;3.90;;
22191;SDS011;11261;52.456;10.850;2023-06-26T10:40:40;4.55;;;3.75;;
22191;SDS011;11261;52.456;10.850;2023-06-26T10:43:09;6.60;;;3.63;;
22191;SDS011;11261;52.456;10.850;2023-06-26T10:45:43;4.55;;;3.97;;
22191;SDS011;11261;52.456;10.850;2023-06-26T10:48:14;6.57;;;3.72;;
22191;SDS011;11261;52.456;10.850;2023-06-26T10:50:42;5.30;;;4.50;;
22191;SDS011;11261;52.456;10.850;2023-06-26T10:53:15;5.93;;;4.25;;
22191;SDS011;11261;52.456;10.850;2023-06-26T10:55:56;6.82;;;4.35;;
22191;SDS011;11261;52.456;10.850;2023-06-26T10:58:32;4.38;;;3.97;;
22191;SDS011;11261;52.456;10.850;2023-06-26T11:01:14;6.50;;;4.07;;
22191;SDS011;11261;52.456;10.850;2023-06-26T11:03:45;5.18;;;4.22;;
22191;SDS011;11261;52.456;10.850;2023-06-26T11:06:20;7.00;;;4.70;;
22191;SDS011;11261;52.456;10.850;2023-06-26T11:08:49;6.35;;;5.00;;
22191;SDS011;11261;52.456;10.850;2023-06-26T11:11:21;7.85;;;4.72;;
22191;SDS011;11261;52.456;10.850;2023-06-26T11:14:29;8.77;;;4.85;;
22191;SDS011;11261;52.456;10.850;2023-06-26T11:16:59;9.10;;;4.85;;
22191;SDS011;11261;52.456;10.850;2023-06-26T11:19:30;6.68;;;4.43;;
22191;SDS011;11261;52.456;10.850;2023-06-26T11:21:59;8.65;;;4.90;;
22191;SDS011;11261;52.456;10.850;2023-06-26T11:24:31;6.43;;;5.07;;
22191;SDS011;11261;52.456;10.850;2023-06-26T11:27:02;6.75;;;4.45;;
22191;SDS011;11261;52.456;10.850;2023-06-26T11:29:32;4.35;;;3.95;;
22191;SDS011;11261;52.456;10.850;2023-06-26T11:32:01;9.40;;;4.80;;
22191;SDS011;11261;52.456;10.850;2023-06-26T11:34:32;6.78;;;5.55;;
22191;SDS011;11261;52.456;10.850;2023-06-26T11:37:01;8.15;;;5.40;;
22191;SDS011;11261;52.456;10.850;2023-06-26T11:39:30;6.03;;;5.15;;
22191;SDS011;11261;52.456;10.850;2023-06-26T11:41:59;7.40;;;5.20;;
22191;SDS011;11261;52.456;10.850;2023-06-26T11:44:32;9.13;;;5.05;;
22191;SDS011;11261;52.456;10.850;2023-06-26T11:47:08;7.57;;;5.40;;
22191;SDS011;11261;52.456;10.850;2023-06-26T11:49:41;10.95;;;5.72;;
22191;SDS011;11261;52.456;10.850;2023-06-26T11:52:10;9.23;;;6.45;;
22191;SDS011;11261;52.456;10.850;2023-06-26T11:54:39;10.20;;;6.35;;
22191;SDS011;11261;52.456;10.850;2023-06-26T11:57:08;8.48;;;6.30;;
22191;SDS011;11261;52.456;10.850;2023-06-26T11:59:42;10.93;;;8.07;;
22191;SDS011;11261;52.456;10.850;2023-06-26T12:02:14;11.18;;;7.72;;
22191;SDS011;11261;52.456;10.850;2023-06-26T12:04:43;14.68;;;7.90;;
22191;SDS011;11261;52.456;10.850;2023-06-26T12:07:12;9.48;;;7.10;;
22191;SDS011;11261;52.456;10.850;2023-06-26T12:09:42;8.25;;;5.68;;
22191;SDS011;11261;52.456;10.850;2023-06-26T12:12:12;6.35;;;4.57;;
22191;SDS011;11261;52.456;10.850;2023-06-26T12:14:45;8.85;;;4.72;;
22191;SDS011;11261;52.456;10.850;2023-06-26T12:17:14;4.70;;;4.00;;
22191;SDS011;11261;52.456;10.850;2023-06-26T12:19:43;5.25;;;3.95;;
22191;SDS011;11261;52.456;10.850;2023-06-26T12:22:14;5.85;;;4.20;;
22191;SDS011;11261;52.456;10.850;2023-06-26T12:24:43;6.43;;;3.47;;
22191;SDS011;11261;52.456;10.850;2023-06-26T12:27:13;6.55;;;4.03;;
22191;SDS011;11261;52.456;10.850;2023-06-26T12:29:45;6.00;;;3.88;;
22191;SDS011;11261;52.456;10.850;2023-06-26T12:32:18;6.47;;;4.10;;
22191;SDS011;11261;52.456;10.850;2023-06-26T12:34:47;5.97;;;3.35;;
22191;SDS011;11261;52.456;10.850;2023-06-26T12:37:17;6.40;;;3.90;;
22191;SDS011;11261;52.456;10.850;2023-06-26T12:39:46;4.80;;;3.65;;
22191;SDS011;11261;52.456;10.850;2023-06-26T12:42:17;4.28;;;3.25;;
22191;SDS011;11261;52.456;10.850;2023-06-26T12:44:47;5.40;;;3.45;;
22191;SDS011;11261;52.456;10.850;2023-06-26T12:47:16;5.85;;;3.33;;
22191;SDS011;11261;52.456;10.850;2023-06-26T12:49:49;4.32;;;3.35;;
22191;SDS011;11261;52.456;10.850;2023-06-26T12:52:18;6.35;;;4.05;;
22191;SDS011;11261;52.456;10.850;2023-06-26T12:54:51;4.97;;;3.67;;
22191;SDS011;11261;52.456;10.850;2023-06-26T12:57:20;5.75;;;3.83;;
22191;SDS011;11261;52.456;10.850;2023-06-26T12:59:51;5.32;;;3.72;;
22191;SDS011;11261;52.456;10.850;2023-06-26T13:02:19;6.65;;;3.97;;
22191;SDS011;11261;52.456;10.850;2023-06-26T13:04:47;6.15;;;3.88;;
22191;SDS011;11261;52.456;10.850;2023-06-26T13:07:16;7.38;;;4.13;;
22191;SDS011;11261;52.456;10.850;2023-06-26T13:09:44;7.00;;;4.25;;
22191;SDS011;11261;52.456;10.850;2023-06-26T13:12:14;9.82;;;4.50;;
22191;SDS011;11261;52.456;10.850;2023-06-26T13:14:43;5.78;;;3.95;;
22191;SDS011;11261;52.456;10.850;2023-06-26T13:17:12;7.85;;;4.22;;
22191;SDS011;11261;52.456;10.850;2023-06-26T13:19:41;11.20;;;4.38;;
22191;SDS011;11261;52.456;10.850;2023-06-26T13:22:10;6.95;;;4.10;;
22191;SDS011;11261;52.456;10.850;2023-06-26T13:24:38;5.20;;;4.10;;
22191;SDS011;11261;52.456;10.850;2023-06-26T13:27:07;9.05;;;3.90;;
22191;SDS011;11261;52.456;10.850;2023-06-26T13:29:36;6.55;;;3.88;;
22191;SDS011;11261;52.456;10.850;2023-06-26T13:32:04;6.38;;;4.22;;
22191;SDS011;11261;52.456;10.850;2023-06-26T13:34:35;6.78;;;3.85;;
22191;SDS011;11261;52.456;10.850;2023-06-26T13:37:03;8.55;;;4.20;;
22191;SDS011;11261;52.456;10.850;2023-06-26T13:39:32;5.90;;;3.75;;
22191;SDS011;11261;52.456;10.850;2023-06-26T13:42:01;4.97;;;4.10;;
22191;SDS011;11261;52.456;10.850;2023-06-26T13:44:30;6.95;;;3.40;;
22191;SDS011;11261;52.456;10.850;2023-06-26T13:47:13;7.90;;;3.20;;
22191;SDS011;11261;52.456;10.850;2023-06-26T13:49:43;4.93;;;3.58;;
22191;SDS011;11261;52.456;10.850;2023-06-26T13:52:11;6.72;;;3.33;;
22191;SDS011;11261;52.456;10.850;2023-06-26T13:54:39;4.85;;;3.08;;
22191;SDS011;11261;52.456;10.850;2023-06-26T13:57:08;5.75;;;3.10;;
22191;SDS011;11261;52.456;10.850;2023-06-26T13:59:37;4.93;;;2.95;;
22191;SDS011;11261;52.456;10.850;2023-06-26T14:02:07;4.13;;;2.80;;
22191;SDS011;11261;52.456;10.850;2023-06-26T14:04:36;4.18;;;3.10;;
22191;SDS011;11261;52.456;10.850;2023-06-26T14:07:06;3.42;;;2.97;;
22191;SDS011;11261;52.456;10.850;2023-06-26T14:09:34;3.35;;;2.85;;
22191;SDS011;11261;52.456;10.850;2023-06-26T14:12:03;4.47;;;2.28;;
22191;SDS011;11261;52.456;10.850;2023-06-26T14:14:32;6.50;;;2.85;;
22191;SDS011;11261;52.456;10.850;2023-06-26T14:17:01;9.70;;;2.65;;
22191;SDS011;11261;52.456;10.850;2023-06-26T14:19:31;4.93;;;2.80;;
22191;SDS011;11261;52.456;10.850;2023-06-26T14:22:00;6.05;;;2.63;;
22191;SDS011;11261;52.456;10.850;2023-06-26T14:24:30;4.57;;;2.67;;
22191;SDS011;11261;52.456;10.850;2023-06-26T14:26:58;4.00;;;2.25;;
22191;SDS011;11261;52.456;10.850;2023-06-26T14:29:26;4.60;;;2.25;;
22191;SDS011;11261;52.456;10.850;2023-06-26T14:31:55;5.97;;;2.42;;
22191;SDS011;11261;52.456;10.850;2023-06-26T14:34:23;3.90;;;2.20;;
22191;SDS011;11261;52.456;10.850;2023-06-26T14:36:51;2.90;;;2.10;;
22191;SDS011;11261;52.456;10.850;2023-06-26T14:39:20;6.70;;;2.47;;
22191;SDS011;11261;52.456;10.850;2023-06-26T14:41:50;2.75;;;2.08;;
22191;SDS011;11261;52.456;10.850;2023-06-26T14:44:19;5.70;;;2.58;;
22191;SDS011;11261;52.456;10.850;2023-06-26T14:46:48;3.85;;;2.25;;
22191;SDS011;11261;52.456;10.850;2023-06-26T14:49:16;5.55;;;2.10;;
22191;SDS011;11261;52.456;10.850;2023-06-26T14:51:45;5.32;;;2.28;;